Time;durP1;ratioP1;P1;durP2;ratioP2;P2;SDS_P1;SDS_P2;PMS_P1;PMS_P2;Temp;Humidity;BMP_temperature;BMP_pressure;BME280_temperature;BME280_humidity;BME280_pressure;Samples;Min_cycle;Max_cycle;Signal;HPM_P1;HPM_P2
2021/09/02 00:02:00;;;;;;;3.13;1.67;;;14.90;78.90;;;;;;5068128;28;20183;-74
2021/09/02 00:04:27;;;;;;;1.40;1.40;;;14.90;79.30;;;;;;5071398;28;20170;-74
2021/09/02 00:06:53;;;;;;;1.50;1.50;;;14.90;79.40;;;;;;5064139;28;20184;-74
2021/09/02 00:09:19;;;;;;;1.95;1.92;;;14.90;79.10;;;;;;5088223;28;20233;-74
2021/09/02 00:11:45;;;;;;;1.90;1.80;;;14.90;79.30;;;;;;5076591;28;20265;-74
2021/09/02 00:14:10;;;;;;;2.90;1.58;;;14.90;79.40;;;;;;5062288;28;20226;-74
2021/09/02 00:16:36;;;;;;;2.30;2.10;;;14.90;79.80;;;;;;5070557;28;20885;-73
2021/09/02 00:19:02;;;;;;;2.50;2.40;;;14.90;79.80;;;;;;5062999;28;20194;-73
2021/09/02 00:21:28;;;;;;;1.73;1.65;;;14.90;80.30;;;;;;5072879;28;20182;-73
2021/09/02 00:23:54;;;;;;;1.63;1.52;;;14.90;80.20;;;;;;5067739;28;20209;-73
2021/09/02 00:26:20;;;;;;;1.30;1.30;;;14.90;79.80;;;;;;5065089;28;20197;-73
2021/09/02 00:28:46;;;;;;;2.38;1.77;;;14.90;80.00;;;;;;5063989;28;20216;-73
2021/09/02 00:31:13;;;;;;;2.20;1.92;;;14.90;79.80;;;;;;5068116;28;20191;-73
2021/09/02 00:33:39;;;;;;;1.73;1.65;;;14.90;80.00;;;;;;5076076;28;20205;-74
2021/09/02 00:36:05;;;;;;;1.58;1.48;;;14.90;80.50;;;;;;5069588;28;20591;-73
2021/09/02 00:38:32;;;;;;;1.73;1.73;;;14.80;80.10;;;;;;5068577;28;20182;-73
2021/09/02 00:40:58;;;;;;;1.80;1.70;;;14.80;80.00;;;;;;5076299;28;20269;-73
2021/09/02 00:43:26;;;;;;;1.50;1.50;;;14.80;80.70;;;;;;5071935;28;20970;-73
2021/09/02 00:45:54;;;;;;;1.30;1.30;;;14.70;80.60;;;;;;5065405;28;20199;-73
2021/09/02 00:48:19;;;;;;;1.80;1.70;;;14.70;80.60;;;;;;5066891;28;20611;-73
2021/09/02 00:50:46;;;;;;;1.65;1.65;;;14.70;81.10;;;;;;5071795;28;20186;-73
2021/09/02 00:53:12;;;;;;;1.63;1.50;;;14.70;81.00;;;;;;5069379;28;20179;-73
2021/09/02 00:55:38;;;;;;;1.40;1.30;;;14.70;81.20;;;;;;5075224;28;20179;-73
2021/09/02 00:58:04;;;;;;;1.80;1.70;;;14.70;81.20;;;;;;5068728;28;20193;-73
2021/09/02 01:00:30;;;;;;;1.85;1.52;;;14.70;80.90;;;;;;5068359;28;20733;-73
2021/09/02 01:02:56;;;;;;;1.75;1.35;;;14.70;80.70;;;;;;5073495;28;20182;-73
2021/09/02 01:05:22;;;;;;;1.00;1.00;;;14.70;81.00;;;;;;5071447;28;20257;-74
2021/09/02 01:07:48;;;;;;;1.35;1.25;;;14.70;81.00;;;;;;5071175;28;20194;-75
2021/09/02 01:10:15;;;;;;;1.50;1.50;;;14.70;81.20;;;;;;5070502;28;20247;-73
2021/09/02 01:12:42;;;;;;;1.23;1.05;;;14.70;80.80;;;;;;5067386;28;20179;-73
2021/09/02 01:15:11;;;;;;;1.65;1.55;;;14.70;80.80;;;;;;5067260;28;20182;-73
2021/09/02 01:17:42;;;;;;;1.40;1.30;;;14.60;81.00;;;;;;5069015;28;20175;-73
2021/09/02 01:20:14;;;;;;;1.52;1.42;;;14.60;81.20;;;;;;5075054;28;20206;-73
2021/09/02 01:22:41;;;;;;;1.38;1.38;;;14.60;81.80;;;;;;5066424;28;20187;-72
2021/09/02 01:25:11;;;;;;;2.25;1.70;;;14.60;81.40;;;;;;5070945;28;20182;-73
2021/09/02 01:27:37;;;;;;;1.77;1.58;;;14.60;81.70;;;;;;5073203;28;20189;-73
2021/09/02 01:30:06;;;;;;;1.50;1.40;;;14.50;81.40;;;;;;5070162;28;20247;-73
2021/09/02 01:32:34;;;;;;;1.55;1.33;;;14.50;81.90;;;;;;5084814;28;20178;-72
2021/09/02 01:35:01;;;;;;;1.60;1.50;;;14.50;81.40;;;;;;5080585;28;20269;-72
2021/09/02 01:37:41;;;;;;;1.20;1.15;;;14.50;81.40;;;;;;5066036;28;20208;-73
2021/09/02 01:40:11;;;;;;;1.17;1.17;;;14.50;81.90;;;;;;5075384;28;20182;-72
2021/09/02 01:42:37;;;;;;;1.75;1.67;;;14.50;81.80;;;;;;5070453;28;20166;-72
2021/09/02 01:45:04;;;;;;;1.38;1.38;;;14.50;81.60;;;;;;5065847;28;20237;-72
2021/09/02 01:47:29;;;;;;;1.83;1.70;;;14.50;82.10;;;;;;5065988;28;20187;-73
2021/09/02 01:50:05;;;;;;;1.67;1.58;;;14.50;82.00;;;;;;5070082;28;20214;-72
2021/09/02 01:52:31;;;;;;;1.95;1.52;;;14.50;81.40;;;;;;5060225;28;20202;-75
2021/09/02 01:54:56;;;;;;;1.60;1.50;;;14.60;82.00;;;;;;5060296;28;20226;-75
2021/09/02 01:57:22;;;;;;;1.10;1.10;;;14.60;81.70;;;;;;5062074;28;20188;-75
2021/09/02 01:59:48;;;;;;;1.40;1.40;;;14.60;81.20;;;;;;5068786;28;20214;-75
2021/09/02 02:02:13;;;;;;;1.70;1.60;;;14.60;81.30;;;;;;5070288;28;20272;-75
2021/09/02 02:04:39;;;;;;;1.95;1.42;;;14.60;81.90;;;;;;5067753;28;20221;-75
2021/09/02 02:07:05;;;;;;;4.35;1.55;;;14.60;81.90;;;;;;5068782;28;20630;-75
2021/09/02 02:09:31;;;;;;;1.63;1.63;;;14.60;82.00;;;;;;5067588;28;20314;-75
2021/09/02 02:11:56;;;;;;;1.95;1.60;;;14.60;82.00;;;;;;5074352;28;20315;-74
2021/09/02 02:14:22;;;;;;;1.35;1.27;;;14.50;82.10;;;;;;5062140;28;20198;-75
2021/09/02 02:16:48;;;;;;;1.65;1.60;;;14.50;82.00;;;;;;5074507;28;20175;-75
2021/09/02 02:19:14;;;;;;;1.80;1.77;;;14.60;82.10;;;;;;5066500;28;20202;-74
2021/09/02 02:21:41;;;;;;;3.28;1.60;;;14.50;82.50;;;;;;5075921;28;20195;-75
2021/09/02 02:24:06;;;;;;;3.28;1.92;;;14.50;82.00;;;;;;5064724;28;20190;-75
2021/09/02 02:26:32;;;;;;;1.50;1.50;;;14.60;82.40;;;;;;5075078;28;20258;-74
2021/09/02 02:28:58;;;;;;;1.42;1.42;;;14.50;82.10;;;;;;5075769;28;20228;-74
2021/09/02 02:31:24;;;;;;;1.98;1.88;;;14.50;82.40;;;;;;5064183;28;20837;-74
2021/09/02 02:33:49;;;;;;;2.15;2.05;;;14.60;82.60;;;;;;5074082;28;20178;-74
2021/09/02 02:36:15;;;;;;;2.08;1.75;;;14.60;82.80;;;;;;5076026;28;20186;-74
2021/09/02 02:38:41;;;;;;;1.63;1.52;;;14.60;82.50;;;;;;5073016;28;20236;-72
2021/09/02 02:41:06;;;;;;;1.17;1.17;;;14.50;82.90;;;;;;5070948;28;20302;-74
2021/09/02 02:43:32;;;;;;;1.90;1.80;;;14.60;82.80;;;;;;5073845;28;20186;-75
2021/09/02 02:45:58;;;;;;;2.08;1.98;;;14.60;82.70;;;;;;5064009;28;21039;-73
2021/09/02 02:48:24;;;;;;;4.00;2.10;;;14.60;82.70;;;;;;5070506;28;20301;-74
2021/09/02 02:50:50;;;;;;;2.10;2.00;;;14.70;82.50;;;;;;5068176;28;20187;-75
2021/09/02 02:53:16;;;;;;;1.85;1.75;;;14.70;82.80;;;;;;5071488;28;20194;-74
2021/09/02 02:55:42;;;;;;;2.03;1.92;;;14.70;82.60;;;;;;5075967;28;20182;-73
2021/09/02 02:58:07;;;;;;;2.40;2.10;;;14.70;82.50;;;;;;5082247;28;20184;-74
2021/09/02 03:00:33;;;;;;;2.25;2.15;;;14.70;83.00;;;;;;5076257;28;20200;-74
2021/09/02 03:02:59;;;;;;;2.00;1.90;;;14.70;82.60;;;;;;5063935;28;20183;-74
2021/09/02 03:05:25;;;;;;;2.58;2.00;;;14.70;82.40;;;;;;5069145;28;20179;-74
2021/09/02 03:07:51;;;;;;;2.80;2.35;;;14.70;82.80;;;;;;5067432;28;20282;-73
2021/09/02 03:10:16;;;;;;;2.15;2.05;;;14.70;82.70;;;;;;5076327;28;20190;-73
2021/09/02 03:12:42;;;;;;;4.75;2.20;;;14.70;82.70;;;;;;5077381;28;20199;-73
2021/09/02 03:15:09;;;;;;;2.25;2.05;;;14.80;82.60;;;;;;5074019;28;20176;-73
2021/09/02 03:17:35;;;;;;;4.97;1.95;;;14.80;82.70;;;;;;5069580;28;20179;-74
2021/09/02 03:20:02;;;;;;;2.08;2.00;;;14.80;82.50;;;;;;5067631;28;20218;-73
2021/09/02 03:22:28;;;;;;;2.55;2.35;;;14.80;83.10;;;;;;5070225;28;20178;-74
2021/09/02 03:24:54;;;;;;;2.15;2.05;;;14.80;83.00;;;;;;5071544;28;20189;-73
2021/09/02 03:27:19;;;;;;;2.53;2.42;;;14.80;82.70;;;;;;5066913;28;20552;-73
2021/09/02 03:29:45;;;;;;;2.25;1.80;;;14.80;82.70;;;;;;5072210;28;20204;-73
2021/09/02 03:32:11;;;;;;;5.85;2.10;;;14.80;82.90;;;;;;5073392;28;20191;-73
2021/09/02 03:34:37;;;;;;;2.33;2.20;;;14.80;82.80;;;;;;5067236;28;20221;-72
2021/09/02 03:37:02;;;;;;;2.17;2.08;;;14.80;82.70;;;;;;5066810;28;20316;-75
2021/09/02 03:39:28;;;;;;;1.80;1.80;;;14.80;82.70;;;;;;5071345;28;20194;-74
2021/09/02 03:41:54;;;;;;;2.70;2.55;;;14.90;82.30;;;;;;5073205;28;20183;-75
2021/09/02 03:44:20;;;;;;;3.35;2.70;;;14.90;82.70;;;;;;5069826;28;20214;-75
2021/09/02 03:46:45;;;;;;;2.35;2.15;;;14.90;82.70;;;;;;5073142;28;20270;-75
2021/09/02 03:49:12;;;;;;;2.22;2.13;;;14.90;82.00;;;;;;5071318;28;20952;-74
2021/09/02 03:51:38;;;;;;;2.40;2.30;;;15.00;82.70;;;;;;5083388;28;20167;-75
2021/09/02 03:54:04;;;;;;;3.65;2.33;;;15.00;82.40;;;;;;5070360;28;20179;-74
2021/09/02 03:56:30;;;;;;;2.35;2.25;;;15.00;82.40;;;;;;5066692;28;20580;-74
2021/09/02 03:58:56;;;;;;;2.30;2.20;;;15.00;82.30;;;;;;5076929;28;20178;-73
2021/09/02 04:01:22;;;;;;;2.70;2.60;;;15.00;82.40;;;;;;5071933;28;20178;-74
2021/09/02 04:03:48;;;;;;;3.92;2.15;;;15.00;82.70;;;;;;5071401;28;20511;-74
2021/09/02 04:06:13;;;;;;;2.88;2.72;;;15.00;82.70;;;;;;5073743;28;20210;-74
2021/09/02 04:08:39;;;;;;;2.58;2.47;;;15.00;82.80;;;;;;5072639;28;20233;-75
2021/09/02 04:11:05;;;;;;;2.28;2.17;;;15.00;82.60;;;;;;5069579;28;20183;-74
2021/09/02 04:13:30;;;;;;;3.00;2.85;;;14.90;82.80;;;;;;5077195;28;20186;-74
2021/09/02 04:15:56;;;;;;;2.60;2.50;;;14.90;82.50;;;;;;5073092;28;20573;-75
2021/09/02 04:18:22;;;;;;;3.08;2.88;;;14.90;82.70;;;;;;5075249;28;20258;-75
2021/09/02 04:20:48;;;;;;;2.65;2.53;;;14.90;82.70;;;;;;5074395;28;21012;-75
2021/09/02 04:23:13;;;;;;;2.53;2.40;;;14.90;82.90;;;;;;5087056;28;20186;-74
2021/09/02 04:25:39;;;;;;;2.38;2.28;;;14.90;82.60;;;;;;5070562;28;20231;-75
2021/09/02 04:28:05;;;;;;;3.45;2.42;;;15.00;82.70;;;;;;5076955;28;20262;-74
2021/09/02 04:30:31;;;;;;;2.70;2.50;;;15.00;82.70;;;;;;5062204;28;20266;-74
2021/09/02 04:32:57;;;;;;;2.78;2.67;;;15.00;82.70;;;;;;5078042;28;20827;-74
2021/09/02 04:35:23;;;;;;;3.08;2.88;;;15.00;82.40;;;;;;5074926;28;20174;-75
2021/09/02 04:37:49;;;;;;;2.97;2.42;;;15.00;82.70;;;;;;5075640;28;20174;-74
2021/09/02 04:40:16;;;;;;;3.88;2.35;;;15.00;82.30;;;;;;5070847;28;20567;-74
2021/09/02 04:42:42;;;;;;;2.92;2.75;;;15.10;82.30;;;;;;5069722;28;20254;-74
2021/09/02 04:45:08;;;;;;;2.85;2.75;;;15.10;82.50;;;;;;5064526;28;20316;-75
2021/09/02 04:47:34;;;;;;;2.50;2.40;;;15.10;82.50;;;;;;5063510;28;20182;-74
2021/09/02 04:50:02;;;;;;;2.63;2.42;;;15.10;82.30;;;;;;5062101;28;20202;-74
2021/09/02 04:52:27;;;;;;;2.40;2.22;;;15.10;82.20;;;;;;5066838;28;20649;-74
2021/09/02 04:54:53;;;;;;;4.03;2.80;;;15.10;82.50;;;;;;5066641;28;20191;-74
2021/09/02 04:57:19;;;;;;;2.60;2.50;;;15.10;82.70;;;;;;5067395;28;20590;-74
2021/09/02 04:59:49;;;;;;;2.58;2.42;;;15.10;82.50;;;;;;5071136;28;20193;-74
2021/09/02 05:02:15;;;;;;;3.42;2.25;;;15.20;82.40;;;;;;5075426;28;20185;-73
2021/09/02 05:04:41;;;;;;;2.58;2.08;;;15.20;82.40;;;;;;5067076;28;20183;-74
2021/09/02 05:07:07;;;;;;;2.30;2.20;;;15.20;82.20;;;;;;5066711;28;20187;-74
2021/09/02 05:09:33;;;;;;;1.83;1.83;;;15.30;81.90;;;;;;5061942;28;20272;-77
2021/09/02 05:11:58;;;;;;;2.42;2.08;;;15.20;82.10;;;;;;5070988;28;20659;-78
2021/09/02 05:14:24;;;;;;;2.50;2.38;;;15.30;82.20;;;;;;5063834;28;20876;-78
2021/09/02 05:16:50;;;;;;;1.75;1.70;;;15.30;81.60;;;;;;5072889;28;20206;-78
2021/09/02 05:19:16;;;;;;;2.33;2.22;;;15.30;82.00;;;;;;5076746;28;20656;-79
2021/09/02 05:21:41;;;;;;;1.70;1.60;;;15.30;82.00;;;;;;5071869;28;20303;-79
2021/09/02 05:24:07;;;;;;;2.42;2.33;;;15.40;81.90;;;;;;5072338;28;20690;-79
2021/09/02 05:26:33;;;;;;;2.30;2.20;;;15.40;81.90;;;;;;5076412;28;20234;-79
2021/09/02 05:28:59;;;;;;;2.72;2.53;;;15.40;81.50;;;;;;5070581;28;20235;-79
2021/09/02 05:31:26;;;;;;;2.50;2.25;;;15.40;81.40;;;;;;5071273;28;20191;-73
2021/09/02 05:33:52;;;;;;;2.00;1.90;;;15.40;81.60;;;;;;5071524;28;20174;-73
2021/09/02 05:36:19;;;;;;;2.00;1.88;;;15.40;81.60;;;;;;5075980;28;20174;-75
2021/09/02 05:38:45;;;;;;;4.07;2.22;;;15.40;82.10;;;;;;5075670;28;20248;-79
2021/09/02 05:41:10;;;;;;;2.50;2.40;;;15.40;81.60;;;;;;5075739;28;20239;-76
2021/09/02 05:43:36;;;;;;;7.53;2.67;;;15.50;81.50;;;;;;5067749;28;20275;-75
2021/09/02 05:46:02;;;;;;;2.17;2.08;;;15.50;81.50;;;;;;5069119;28;20675;-75
2021/09/02 05:48:28;;;;;;;2.22;2.13;;;15.60;81.40;;;;;;5073199;28;21186;-76
2021/09/02 05:50:54;;;;;;;5.40;2.28;;;15.70;80.50;;;;;;5069870;28;20278;-75
2021/09/02 05:53:21;;;;;;;2.35;2.22;;;15.80;81.10;;;;;;5070148;28;20207;-74
2021/09/02 05:55:48;;;;;;;2.25;2.08;;;15.80;80.70;;;;;;5072732;28;20195;-73
2021/09/02 05:58:14;;;;;;;3.33;2.30;;;15.90;80.70;;;;;;5072677;28;20279;-73
2021/09/02 06:00:40;;;;;;;2.33;2.25;;;15.90;80.40;;;;;;5078148;28;20297;-73
2021/09/02 06:03:05;;;;;;;2.28;2.20;;;15.90;80.30;;;;;;5075080;28;20633;-74
2021/09/02 06:05:31;;;;;;;1.85;1.75;;;15.90;80.20;;;;;;5069297;28;20184;-73
2021/09/02 06:07:57;;;;;;;2.33;1.92;;;15.90;80.00;;;;;;5078103;28;20214;-73
2021/09/02 06:10:23;;;;;;;2.53;1.67;;;15.90;80.30;;;;;;5072864;28;20182;-74
2021/09/02 06:12:49;;;;;;;1.85;1.75;;;15.90;79.80;;;;;;5077789;28;20191;-74
2021/09/02 06:15:15;;;;;;;2.20;2.00;;;16.00;79.90;;;;;;5078231;28;20190;-73
2021/09/02 06:17:41;;;;;;;1.90;1.83;;;16.10;80.00;;;;;;5075315;28;20206;-73
2021/09/02 06:20:08;;;;;;;1.85;1.85;;;16.20;79.20;;;;;;5079181;28;20218;-73
2021/09/02 06:22:34;;;;;;;1.63;1.52;;;16.40;78.80;;;;;;5079455;28;20179;-73
2021/09/02 06:25:00;;;;;;;1.50;1.40;;;16.40;78.80;;;;;;5079735;28;20179;-73
2021/09/02 06:27:27;;;;;;;1.80;1.70;;;16.40;78.30;;;;;;5078823;28;20171;-74
2021/09/02 06:33:15;;;;;;;2.47;1.58;;;16.60;78.00;;;;;;5077955;28;20814;-73
2021/09/02 06:35:41;;;;;;;2.63;1.50;;;16.80;77.60;;;;;;5071441;28;20270;-74
2021/09/02 06:38:07;;;;;;;1.25;1.25;;;16.80;77.20;;;;;;5077369;28;20198;-73
2021/09/02 06:40:33;;;;;;;1.25;1.23;;;16.90;76.50;;;;;;5076029;28;20182;-73
2021/09/02 06:42:59;;;;;;;1.58;1.52;;;17.00;76.40;;;;;;5072030;28;20190;-73
2021/09/02 06:45:25;;;;;;;1.90;1.80;;;17.10;76.50;;;;;;5071228;28;20174;-74
2021/09/02 06:47:51;;;;;;;1.45;1.45;;;17.10;76.60;;;;;;5073670;28;20179;-74
2021/09/02 06:50:17;;;;;;;2.00;1.90;;;17.20;76.40;;;;;;5071250;28;20179;-74
2021/09/02 06:52:43;;;;;;;1.83;1.80;;;17.20;76.50;;;;;;5073703;28;20607;-74
2021/09/02 06:55:09;;;;;;;1.80;1.70;;;17.10;76.40;;;;;;5076662;28;20182;-74
2021/09/02 06:57:35;;;;;;;1.83;1.83;;;17.10;76.30;;;;;;5075642;28;20182;-74
2021/09/02 07:00:03;;;;;;;1.58;1.58;;;17.10;76.60;;;;;;5074957;28;20187;-74
2021/09/02 07:02:29;;;;;;;1.27;1.27;;;17.10;76.60;;;;;;5073864;28;20580;-74
2021/09/02 07:04:54;;;;;;;1.60;1.50;;;17.10;76.30;;;;;;5077090;28;20183;-74
2021/09/02 07:07:20;;;;;;;1.80;1.27;;;17.20;75.90;;;;;;5075873;28;20210;-74
2021/09/02 07:09:46;;;;;;;1.52;1.45;;;17.30;76.30;;;;;;5070294;28;20205;-74
2021/09/02 07:12:11;;;;;;;1.58;1.58;;;17.20;76.00;;;;;;5071068;28;20191;-74
2021/09/02 07:14:37;;;;;;;2.22;1.60;;;17.20;75.80;;;;;;5070173;28;20190;-73
2021/09/02 07:17:05;;;;;;;1.58;1.50;;;17.20;76.20;;;;;;5074020;28;20174;-74
2021/09/02 07:19:31;;;;;;;1.70;1.60;;;17.30;76.30;;;;;;5076771;28;20174;-74
2021/09/02 07:21:56;;;;;;;1.65;1.13;;;17.30;75.60;;;;;;5072542;28;20182;-73
2021/09/02 07:24:22;;;;;;;2.78;1.55;;;17.30;75.70;;;;;;5081755;28;20182;-73
2021/09/02 07:26:48;;;;;;;1.75;1.63;;;17.30;76.00;;;;;;5070171;28;20381;-73
2021/09/02 07:29:14;;;;;;;1.88;1.77;;;17.30;76.00;;;;;;5077104;28;20213;-73
2021/09/02 07:31:39;;;;;;;2.28;1.50;;;17.40;75.90;;;;;;5067838;28;20198;-73
2021/09/02 07:34:06;;;;;;;1.27;1.27;;;17.40;75.60;;;;;;5070227;28;20191;-73
2021/09/02 07:36:32;;;;;;;4.00;1.10;;;17.50;75.50;;;;;;5069059;28;20244;-73
2021/09/02 07:38:58;;;;;;;1.10;1.10;;;17.50;75.50;;;;;;5072265;28;20183;-73
2021/09/02 07:41:24;;;;;;;1.35;1.35;;;17.40;75.80;;;;;;5068897;28;20174;-73
2021/09/02 07:43:50;;;;;;;2.55;1.42;;;17.50;75.60;;;;;;5067854;28;20179;-73
2021/09/02 07:46:16;;;;;;;1.20;1.20;;;17.50;75.80;;;;;;5070377;28;20235;-72
2021/09/02 07:48:45;;;;;;;1.17;1.17;;;17.40;75.50;;;;;;5066797;28;20202;-72
2021/09/02 07:51:12;;;;;;;1.13;1.13;;;17.50;75.60;;;;;;5067362;28;20183;-73
2021/09/02 07:53:37;;;;;;;1.17;1.17;;;17.60;75.60;;;;;;5076575;28;20186;-73
2021/09/02 07:56:03;;;;;;;1.20;1.20;;;17.70;75.40;;;;;;5069779;28;20825;-73
2021/09/02 07:58:29;;;;;;;1.63;1.63;;;17.90;74.70;;;;;;5073232;28;20262;-72
2021/09/02 08:00:55;;;;;;;1.25;1.25;;;18.10;74.40;;;;;;5071600;28;20178;-73
2021/09/02 08:03:21;;;;;;;1.15;1.00;;;18.20;74.00;;;;;;5073843;28;20189;-73
2021/09/02 08:05:47;;;;;;;1.30;1.30;;;18.30;73.80;;;;;;5070336;28;20183;-73
2021/09/02 08:08:16;;;;;;;1.05;1.05;;;18.40;73.30;;;;;;5070392;28;20215;-72
2021/09/02 08:10:43;;;;;;;1.08;1.08;;;18.50;73.00;;;;;;5074114;28;20190;-75
2021/09/02 08:13:09;;;;;;;1.70;1.70;;;18.50;72.50;;;;;;5072466;28;20190;-74
2021/09/02 08:15:36;;;;;;;1.20;1.20;;;18.50;72.60;;;;;;5061619;28;20189;-73
2021/09/02 08:18:03;;;;;;;1.23;0.90;;;18.50;72.00;;;;;;5074614;28;20321;-74
2021/09/02 08:20:30;;;;;;;1.17;1.17;;;18.50;72.30;;;;;;5077877;28;20174;-74
2021/09/02 08:22:55;;;;;;;1.17;1.17;;;18.60;72.30;;;;;;5073102;28;20826;-74
2021/09/02 08:25:22;;;;;;;1.52;1.42;;;18.80;72.30;;;;;;5071071;28;20235;-74
2021/09/02 08:27:48;;;;;;;1.58;1.48;;;18.90;71.80;;;;;;5072248;28;20640;-74
2021/09/02 08:30:16;;;;;;;1.85;1.75;;;19.00;71.50;;;;;;5072453;28;20229;-74
2021/09/02 08:32:47;;;;;;;1.23;1.23;;;19.20;71.30;;;;;;5065175;28;20178;-74
2021/09/02 08:35:32;;;;;;;1.30;1.20;;;19.20;70.90;;;;;;5071449;28;20183;-74
2021/09/02 08:38:04;;;;;;;1.05;1.05;;;19.30;71.20;;;;;;5067095;28;20198;-74
2021/09/02 08:40:36;;;;;;;1.67;1.58;;;19.50;70.70;;;;;;5069452;28;20185;-74
2021/09/02 08:43:03;;;;;;;1.27;1.17;;;19.80;70.50;;;;;;5072865;28;20171;-74
2021/09/02 08:45:30;;;;;;;1.58;1.48;;;19.90;69.90;;;;;;5071491;28;20628;-74
2021/09/02 08:47:56;;;;;;;1.25;1.25;;;20.00;70.00;;;;;;5064863;28;20835;-74
2021/09/02 08:50:25;;;;;;;1.38;1.27;;;20.10;68.90;;;;;;5074455;28;20186;-74
2021/09/02 08:52:52;;;;;;;1.50;1.40;;;20.30;69.20;;;;;;5069218;28;20182;-74
2021/09/02 08:55:18;;;;;;;1.77;1.60;;;20.30;68.40;;;;;;5068409;28;20183;-74
2021/09/02 08:57:47;;;;;;;1.60;1.50;;;20.40;68.00;;;;;;5069278;28;20578;-75
2021/09/02 09:00:13;;;;;;;1.10;1.00;;;20.50;68.20;;;;;;5068600;28;20624;-75
2021/09/02 09:02:46;;;;;;;1.10;1.10;;;20.70;68.30;;;;;;5078936;28;20687;-75
2021/09/02 09:05:17;;;;;;;2.28;1.27;;;21.20;67.50;;;;;;5073021;28;20170;-74
2021/09/02 09:07:49;;;;;;;1.05;1.02;;;21.60;66.80;;;;;;5073149;28;20574;-74
2021/09/02 09:10:16;;;;;;;1.27;1.27;;;21.90;65.40;;;;;;5067008;28;20230;-74
2021/09/02 09:12:45;;;;;;;1.10;1.10;;;22.20;65.20;;;;;;5081312;28;20265;-72
2021/09/02 09:15:23;;;;;;;1.25;1.15;;;22.40;64.90;;;;;;5077745;28;20178;-74
2021/09/02 09:17:50;;;;;;;1.15;1.15;;;22.80;64.70;;;;;;5072272;28;20173;-72
2021/09/02 09:20:17;;;;;;;1.17;1.08;;;23.20;62.60;;;;;;5069364;28;20190;-74
2021/09/02 09:22:46;;;;;;;1.45;1.45;;;23.10;62.40;;;;;;5074715;28;20568;-73
2021/09/02 09:25:13;;;;;;;0.98;0.98;;;22.80;62.80;;;;;;5076477;28;20178;-73
2021/09/02 09:27:47;;;;;;;1.13;1.13;;;22.60;63.20;;;;;;5074186;28;20183;-73
2021/09/02 09:30:30;;;;;;;1.23;1.20;;;22.30;63.50;;;;;;5076097;28;20220;-72
2021/09/02 09:33:06;;;;;;;1.23;1.23;;;22.00;64.20;;;;;;5074208;28;20178;-73
2021/09/02 09:35:32;;;;;;;0.90;0.90;;;22.00;64.30;;;;;;5072575;28;20181;-73
2021/09/02 09:38:19;;;;;;;1.40;1.30;;;22.00;64.60;;;;;;5073255;28;20183;-75
2021/09/02 09:40:50;;;;;;;1.05;1.05;;;22.10;64.20;;;;;;5070493;28;20179;-75
2021/09/02 09:43:20;;;;;;;1.85;1.25;;;22.50;64.10;;;;;;5076556;28;20189;-75
2021/09/02 09:45:49;;;;;;;1.50;1.40;;;22.80;63.90;;;;;;5072141;28;20180;-74
2021/09/02 09:48:38;;;;;;;1.27;1.17;;;23.00;63.20;;;;;;5073798;28;20212;-75
2021/09/02 09:51:17;;;;;;;1.35;1.23;;;23.00;62.60;;;;;;5068414;28;20214;-75
2021/09/02 09:53:46;;;;;;;2.25;1.20;;;22.80;62.90;;;;;;5074491;28;20206;-75
2021/09/02 09:56:12;;;;;;;1.23;1.23;;;22.80;63.40;;;;;;5073548;28;20177;-75
2021/09/02 09:58:38;;;;;;;2.47;1.33;;;22.80;62.60;;;;;;5077284;28;20597;-75
2021/09/02 10:01:06;;;;;;;0.88;0.88;;;22.60;63.20;;;;;;5067596;28;20175;-75
2021/09/02 10:03:33;;;;;;;1.20;1.13;;;22.60;63.10;;;;;;5075055;28;20182;-75
2021/09/02 10:06:07;;;;;;;1.35;1.10;;;22.70;63.20;;;;;;5071431;28;20969;-73
2021/09/02 10:08:38;;;;;;;1.52;1.42;;;22.90;62.50;;;;;;5072047;28;20232;-75
2021/09/02 10:11:07;;;;;;;0.90;0.90;;;23.10;61.80;;;;;;5067759;28;20187;-75
2021/09/02 10:13:33;;;;;;;1.10;1.10;;;23.40;61.10;;;;;;5072926;28;20567;-75
2021/09/02 10:16:00;;;;;;;0.80;0.80;;;23.50;61.60;;;;;;5074597;28;20184;-73
2021/09/02 10:18:28;;;;;;;1.20;1.17;;;24.00;60.80;;;;;;5075188;28;20204;-73
2021/09/02 10:20:56;;;;;;;0.80;0.80;;;24.40;60.20;;;;;;5076494;28;20285;-73
2021/09/02 10:23:24;;;;;;;2.40;0.80;;;24.90;59.50;;;;;;5070463;28;20189;-73
2021/09/02 10:25:50;;;;;;;0.90;0.90;;;25.80;58.60;;;;;;5072389;28;20183;-73
2021/09/02 10:28:24;;;;;;;0.90;0.90;;;26.80;56.10;;;;;;5073617;28;20203;-73
2021/09/02 10:30:50;;;;;;;0.95;0.95;;;27.70;55.00;;;;;;5071939;28;20186;-73
2021/09/02 10:33:35;;;;;;;0.90;0.90;;;27.50;53.50;;;;;;5076525;28;20187;-73
2021/09/02 10:36:21;;;;;;;1.08;1.08;;;26.80;53.90;;;;;;5071394;28;20179;-73
2021/09/02 10:38:55;;;;;;;0.90;0.90;;;26.70;55.50;;;;;;5033576;28;20249;-73
2021/09/02 10:41:37;;;;;;;0.90;0.90;;;26.90;55.10;;;;;;5030913;28;20188;-73
2021/09/02 10:44:10;;;;;;;1.05;1.05;;;27.00;55.70;;;;;;5029121;28;20184;-73
2021/09/02 10:46:43;;;;;;;0.98;0.95;;;26.90;55.10;;;;;;5023738;28;20267;-74
2021/09/02 10:49:11;;;;;;;0.70;0.70;;;26.80;55.60;;;;;;5033845;28;20216;-73
2021/09/02 10:51:40;;;;;;;0.70;0.70;;;26.70;55.30;;;;;;5030220;28;20184;-73
2021/09/02 10:54:08;;;;;;;0.80;0.80;;;26.60;55.10;;;;;;5032152;28;20183;-73
2021/09/02 10:56:56;;;;;;;1.05;1.05;;;26.60;56.40;;;;;;5031310;28;20234;-74
2021/09/02 10:59:37;;;;;;;0.90;0.90;;;27.30;54.90;;;;;;4945990;28;20191;-73
2021/09/02 11:02:07;;;;;;;1.48;0.80;;;28.20;52.90;;;;;;4944343;28;20631;-74
2021/09/02 11:04:32;;;;;;;0.77;0.77;;;28.40;53.30;;;;;;4946568;28;20191;-74
2021/09/02 11:06:58;;;;;;;1.02;1.02;;;29.10;52.40;;;;;;4946209;28;20275;-74
2021/09/02 11:09:38;;;;;;;0.88;0.88;;;29.60;52.90;;;;;;4940038;28;20249;-74
2021/09/02 11:12:11;;;;;;;3.38;1.15;;;30.00;50.60;;;;;;4943252;28;20197;-74
2021/09/02 11:14:45;;;;;;;1.73;0.93;;;29.70;50.30;;;;;;4944052;29;20992;-74
2021/09/02 11:17:12;;;;;;;0.80;0.80;;;29.10;51.30;;;;;;4983907;28;20198;-74
2021/09/02 11:19:42;;;;;;;1.80;0.85;;;28.60;52.40;;;;;;4983729;28;20185;-74
2021/09/02 11:22:10;;;;;;;0.90;0.90;;;28.60;53.10;;;;;;4983769;28;20304;-74
2021/09/02 11:24:47;;;;;;;0.82;0.82;;;28.80;51.90;;;;;;4983439;28;20256;-75
2021/09/02 11:27:33;;;;;;;0.75;0.75;;;29.10;50.80;;;;;;4983388;28;20193;-74
2021/09/02 11:30:16;;;;;;;0.80;0.80;;;29.00;50.70;;;;;;4982976;28;20292;-74
2021/09/02 11:32:43;;;;;;;0.90;0.90;;;28.50;50.60;;;;;;4982136;28;20590;-74
2021/09/02 11:35:10;;;;;;;3.92;1.10;;;27.90;52.90;;;;;;4982054;28;20229;-74
2021/09/02 11:37:43;;;;;;;0.90;0.90;;;27.30;53.50;;;;;;5069896;28;20571;-74
2021/09/02 11:40:20;;;;;;;0.90;0.90;;;27.30;54.10;;;;;;5075898;28;20191;-74
2021/09/02 11:42:46;;;;;;;1.95;1.17;;;27.40;53.00;;;;;;5062013;28;20183;-74
2021/09/02 11:45:16;;;;;;;1.00;1.00;;;27.30;53.50;;;;;;5065068;28;20576;-74
2021/09/02 11:47:42;;;;;;;1.17;1.08;;;27.00;52.00;;;;;;5062495;28;20206;-74
2021/09/02 11:50:08;;;;;;;1.40;0.95;;;26.40;52.70;;;;;;5067595;28;20210;-74
2021/09/02 11:52:44;;;;;;;1.08;1.08;;;25.80;53.90;;;;;;5073816;28;20248;-74
2021/09/02 11:55:23;;;;;;;5.22;1.20;;;25.70;55.10;;;;;;5063809;28;20737;-74
2021/09/02 11:57:53;;;;;;;1.77;1.55;;;25.50;55.30;;;;;;5071955;28;20185;-74
2021/09/02 12:00:18;;;;;;;1.13;1.13;;;25.50;55.00;;;;;;5068770;28;20187;-74
2021/09/02 12:02:53;;;;;;;2.55;1.40;;;25.90;54.70;;;;;;5063120;28;20712;-74
2021/09/02 12:05:21;;;;;;;1.40;1.40;;;26.50;53.90;;;;;;5070065;28;20178;-74
2021/09/02 12:07:51;;;;;;;1.33;1.33;;;27.40;53.70;;;;;;5065491;28;20183;-74
2021/09/02 12:10:19;;;;;;;1.10;1.10;;;28.40;51.90;;;;;;5069631;28;20220;-74
2021/09/02 12:12:45;;;;;;;1.40;1.30;;;28.80;51.30;;;;;;5063726;28;20194;-74
2021/09/02 12:15:29;;;;;;;1.45;1.45;;;29.10;50.80;;;;;;5060161;28;20194;-74
2021/09/02 12:18:10;;;;;;;1.27;1.25;;;29.20;49.50;;;;;;5068531;28;20179;-74
2021/09/02 12:20:37;;;;;;;1.13;1.13;;;29.60;49.70;;;;;;5063848;28;20742;-75
2021/09/02 12:23:48;;;;;;;1.13;1.13;;;30.30;49.90;;;;;;5069589;28;20202;-75
2021/09/02 12:26:15;;;;;;;0.98;0.98;;;31.10;47.90;;;;;;5008363;28;20196;-74
2021/09/02 12:28:45;;;;;;;1.70;1.70;;;31.60;47.20;;;;;;5010463;28;20254;-75
2021/09/02 12:31:14;;;;;;;1.40;1.40;;;32.10;47.70;;;;;;5010318;28;20203;-73
2021/09/02 12:34:08;;;;;;;0.95;0.95;;;32.40;45.90;;;;;;5009003;28;20180;-74
2021/09/02 12:36:45;;;;;;;1.30;1.10;;;32.50;45.40;;;;;;5006653;28;20193;-74
2021/09/02 12:39:35;;;;;;;1.00;1.00;;;32.50;45.90;;;;;;5012561;28;20242;-74
2021/09/02 12:42:07;;;;;;;0.95;0.95;;;32.50;44.20;;;;;;5008985;28;20200;-74
2021/09/02 12:44:39;;;;;;;1.02;1.02;;;32.20;45.70;;;;;;5006641;28;20227;-74
2021/09/02 12:47:11;;;;;;;1.40;1.30;;;32.30;46.20;;;;;;5005362;28;20708;-74
2021/09/02 12:49:45;;;;;;;0.90;0.90;;;32.60;45.90;;;;;;5006269;28;20397;-74
2021/09/02 12:52:22;;;;;;;1.02;1.02;;;32.50;45.90;;;;;;5009802;28;20196;-74
2021/09/02 12:55:07;;;;;;;1.05;1.05;;;32.80;46.10;;;;;;5010165;28;20194;-74
2021/09/02 12:57:36;;;;;;;1.10;1.10;;;33.10;44.90;;;;;;5006957;28;20290;-74